CYAW/YAW METAR and TAF weather

Enter ICAO airport designator
Station Type Date Time Source
CYAW METAR 2018/10/18 19:00 UTC NOAA

CYAW 181900Z 31024G30KT 5SM -SHGS BKN038TCU BKN250 02/M02 A2972 RMK TCU6CI1 DA-1095FT LAST OBS/NEXT 220900 UTC SLP066


Station Type Date Time Source
CYAW Decoded METAR 2018/10/18 19:00 UTC NOAA

Shearwater, N. S., Canada (CYAW) 44-38N 063-30W 51M
Oct 18, 2018 - 03:00 PM EDT / 2018.10.18 1900 UTC
Wind: from the NW (310 degrees) at 28 MPH (24 KT) gusting to 35 MPH (30 KT):0
Visibility: 5 mile(s):0
Sky conditions: mostly cloudy
Weather: light snow pellets showers; Towering cumulus clouds observed
Temperature: 35 F (2 C)
Windchill: 21 F (-6 C):1
Dew Point: 28 F (-2 C)
Relative Humidity: 74%
Pressure (altimeter): 29.72 in. Hg (1006 hPa)
ob: CYAW 181900Z 31024G30KT 5SM -SHGS BKN038TCU BKN250 02/M02 A2972 RMK TCU6CI1 DA-1095FT LAST OBS/NEXT 220900 UTC SLP066
cycle: 19

Station Type Date Time Source
CYAW TAF 2018/10/18 18:57 UTC NOAA

TAF
AMD TAF
AMD CYAW 181754Z 1818/1906 30020G35KT P6SM BKN030
TEMPO 1818/1822 2SM -SHSNGS
TEMPO 1822/1902 5SM -SHSNGS
RMK NXT FCST BY 190000Z


Example: see airport list